createdAt,value
2022-09-22T00:01:24.529Z,55.37
2022-09-22T00:04:32.104Z,56.04
2022-09-22T00:07:36.569Z,56.21
2022-09-22T00:10:41.063Z,56.42
2022-09-22T00:14:15.278Z,55.55
2022-09-22T00:17:25.111Z,55.54
2022-09-22T00:20:33.621Z,54.56
2022-09-22T00:23:39.323Z,54.30
2022-09-22T00:26:44.695Z,53.45
2022-09-22T00:29:49.423Z,53.00
2022-09-22T00:32:54.335Z,52.10
2022-09-22T00:36:02.288Z,50.51
2022-09-22T00:39:09.019Z,50.32
2022-09-22T00:42:23.166Z,49.71
2022-09-22T00:45:32.972Z,49.27
2022-09-22T00:48:50.063Z,49.59
2022-09-22T00:52:08.319Z,50.46
2022-09-22T00:55:29.196Z,51.32
2022-09-22T00:58:43.115Z,51.54
2022-09-22T01:01:47.894Z,52.67
2022-09-22T01:04:54.045Z,53.07
2022-09-22T01:07:58.995Z,53.18
2022-09-22T01:11:03.976Z,54.53
2022-09-22T01:14:35.275Z,55.04
2022-09-22T01:18:05.360Z,54.58
2022-09-22T01:21:48.648Z,54.64
2022-09-22T01:25:22.175Z,54.31
2022-09-22T01:28:57.234Z,54.82
2022-09-22T01:32:20.416Z,54.60
2022-09-22T01:35:37.428Z,54.68
2022-09-22T01:39:15.423Z,54.77
2022-09-22T01:42:45.162Z,54.76
2022-09-22T01:45:50.540Z,54.37
2022-09-22T01:49:01.596Z,54.96
2022-09-22T01:52:24.377Z,54.77
2022-09-22T01:55:43.918Z,53.33
2022-09-22T01:58:55.615Z,51.54
2022-09-22T02:02:12.602Z,51.58
2022-09-22T02:06:04.997Z,51.43
2022-09-22T02:09:30.319Z,52.30
2022-09-22T02:12:47.064Z,51.53
2022-09-22T02:16:06.486Z,51.16
2022-09-22T02:19:24.980Z,50.63
2022-09-22T02:22:33.217Z,50.58
2022-09-22T02:25:53.352Z,51.48
2022-09-22T02:29:12.475Z,50.91
2022-09-22T02:32:28.664Z,51.89
2022-09-22T02:35:40.762Z,53.34
2022-09-22T02:39:08.966Z,53.35
2022-09-22T02:42:41.708Z,53.74
2022-09-22T02:46:03.772Z,54.58
2022-09-22T02:49:41.627Z,55.15
2022-09-22T02:52:58.101Z,55.99
2022-09-22T02:56:14.881Z,55.83
2022-09-22T02:59:38.345Z,56.04
2022-09-22T03:02:48.464Z,56.13
2022-09-22T03:06:37.281Z,56.41
2022-09-22T03:10:13.176Z,55.95
2022-09-22T03:13:50.090Z,55.46
2022-09-22T03:17:07.801Z,56.76
2022-09-22T03:20:13.955Z,56.93
2022-09-22T03:23:23.108Z,56.57
2022-09-22T03:26:51.072Z,56.61
2022-09-22T03:30:29.286Z,56.54
2022-09-22T03:34:06.338Z,55.84
2022-09-22T03:37:41.558Z,55.27
2022-09-22T03:40:54.577Z,54.46
2022-09-22T03:44:31.242Z,54.78
2022-09-22T03:48:01.310Z,55.67
2022-09-22T03:51:13.530Z,54.54
2022-09-22T03:54:25.915Z,54.33
2022-09-22T03:57:34.910Z,54.28
2022-09-22T04:00:41.246Z,54.95
2022-09-22T04:03:48.941Z,55.27
2022-09-22T04:07:02.217Z,54.08
2022-09-22T04:10:13.011Z,53.39
2022-09-22T04:13:27.178Z,53.65
2022-09-22T04:16:41.481Z,52.56
2022-09-22T04:20:19.909Z,52.28
2022-09-22T04:23:33.694Z,52.40
2022-09-22T04:26:51.635Z,52.40
2022-09-22T04:33:39.085Z,52.03
2022-09-22T04:36:53.058Z,51.90
2022-09-22T04:40:09.270Z,52.06
2022-09-22T04:43:32.746Z,52.50
2022-09-22T04:46:58.271Z,53.11
2022-09-22T04:50:24.673Z,53.13
2022-09-22T04:53:56.235Z,53.00
2022-09-22T04:57:00.521Z,52.96
2022-09-22T05:00:16.790Z,52.61
2022-09-22T05:03:58.865Z,52.16
2022-09-22T05:07:14.975Z,52.21
2022-09-22T05:10:35.168Z,52.53
2022-09-22T05:13:42.019Z,53.13
2022-09-22T05:17:07.204Z,53.22
2022-09-22T05:20:12.595Z,53.74
2022-09-22T05:23:16.881Z,53.55
2022-09-22T05:26:25.307Z,53.08
2022-09-22T05:29:35.311Z,52.66
2022-09-22T05:32:47.933Z,52.50
2022-09-22T05:35:52.580Z,53.04
2022-09-22T05:39:01.826Z,53.38
2022-09-22T05:42:22.100Z,53.08
2022-09-22T05:45:34.213Z,52.88
2022-09-22T05:48:44.998Z,52.97
2022-09-22T05:51:53.074Z,53.30
2022-09-22T05:55:08.239Z,52.77
2022-09-22T05:58:15.795Z,52.82
2022-09-22T06:01:20.756Z,52.89
2022-09-22T06:04:30.139Z,53.39
2022-09-22T06:07:38.023Z,52.85
2022-09-22T06:11:05.825Z,52.43
2022-09-22T06:14:13.059Z,52.92
2022-09-22T06:17:43.250Z,52.64
2022-09-22T06:20:51.174Z,52.07
2022-09-22T06:24:04.408Z,52.08
2022-09-22T06:27:12.364Z,51.35
2022-09-22T06:30:17.000Z,51.67
2022-09-22T06:33:24.396Z,52.43
2022-09-22T06:36:37.931Z,52.97
2022-09-22T06:39:48.635Z,53.39
2022-09-22T06:43:06.324Z,53.82
2022-09-22T06:46:19.601Z,52.29
2022-09-22T06:49:26.491Z,53.01
2022-09-22T06:52:33.085Z,53.50
2022-09-22T06:55:44.007Z,54.21
2022-09-22T06:59:09.342Z,54.06
2022-09-22T07:02:20.452Z,54.49
2022-09-22T07:05:34.193Z,54.62
2022-09-22T07:08:43.001Z,55.01
2022-09-22T07:12:10.179Z,54.88
2022-09-22T07:15:20.533Z,54.76
2022-09-22T07:18:28.739Z,54.24
2022-09-22T07:21:50.642Z,54.11
2022-09-22T07:25:07.195Z,54.06
2022-09-22T07:28:31.553Z,54.01
2022-09-22T07:31:46.075Z,54.08
2022-09-22T07:34:51.062Z,54.38
2022-09-22T07:38:04.403Z,54.70
2022-09-22T07:41:18.666Z,55.38
2022-09-22T07:44:44.507Z,55.73
2022-09-22T07:48:07.496Z,57.07
2022-09-22T07:51:24.277Z,56.85
2022-09-22T07:54:29.283Z,56.67
2022-09-22T07:57:34.911Z,56.48
2022-09-22T08:00:39.935Z,56.44
2022-09-22T08:03:45.033Z,56.15
2022-09-22T08:06:53.215Z,56.71
2022-09-22T08:09:58.164Z,56.40
2022-09-22T08:13:05.156Z,56.57
2022-09-22T08:16:13.457Z,56.50
2022-09-22T08:19:25.354Z,56.67
2022-09-22T08:22:38.940Z,56.96
2022-09-22T08:25:53.284Z,57.10
2022-09-22T08:29:08.929Z,57.47
2022-09-22T08:32:24.068Z,57.25
2022-09-22T08:35:30.700Z,57.69
2022-09-22T08:38:36.231Z,58.13
2022-09-22T08:42:29.353Z,58.12
2022-09-22T08:45:41.624Z,58.44
2022-09-22T08:49:33.326Z,58.76
2022-09-22T08:52:54.861Z,58.82
2022-09-22T08:56:47.135Z,59.05
2022-09-22T09:00:00.214Z,59.94
2022-09-22T09:03:54.435Z,61.42
2022-09-22T09:07:31.553Z,63.49
2022-09-22T09:11:05.817Z,64.71
2022-09-22T09:14:22.097Z,65.20
2022-09-22T09:17:37.735Z,65.20
2022-09-22T09:20:50.109Z,65.96
2022-09-22T09:27:34.431Z,66.28
2022-09-22T09:30:52.027Z,66.65
2022-09-22T09:34:05.758Z,68.02
2022-09-22T09:37:16.625Z,68.32
2022-09-22T09:40:25.375Z,67.33
2022-09-22T09:43:31.178Z,67.24
2022-09-22T09:46:50.659Z,67.56
2022-09-22T09:49:57.377Z,67.90
2022-09-22T09:53:02.013Z,68.83
2022-09-22T09:56:19.003Z,70.89
2022-09-22T09:59:46.977Z,69.99
2022-09-22T10:03:07.247Z,70.06
2022-09-22T10:06:13.761Z,69.56
2022-09-22T10:09:30.457Z,69.40
2022-09-22T10:12:35.656Z,68.84
2022-09-22T10:15:42.436Z,70.65
2022-09-22T10:18:47.932Z,71.14
2022-09-22T10:21:52.627Z,72.95
2022-09-22T10:25:02.967Z,70.65
2022-09-22T10:28:17.767Z,70.77
2022-09-22T10:31:27.986Z,71.39
2022-09-22T10:34:39.837Z,72.00
2022-09-22T10:37:47.655Z,72.10
2022-09-22T10:41:01.251Z,73.86
2022-09-22T10:47:56.127Z,74.18
2022-09-22T10:51:32.971Z,73.72
2022-09-22T10:54:46.219Z,74.75
2022-09-22T10:58:05.751Z,74.47
2022-09-22T11:01:33.590Z,75.55
2022-09-22T11:05:21.178Z,75.50
2022-09-22T11:08:46.937Z,73.63
2022-09-22T11:12:19.954Z,75.02
2022-09-22T11:15:43.628Z,75.08
2022-09-22T11:19:19.420Z,74.42
2022-09-22T11:22:38.443Z,75.41
2022-09-22T11:26:05.721Z,74.99
2022-09-22T11:29:21.273Z,75.35
2022-09-22T11:32:47.878Z,76.46
2022-09-22T11:36:07.514Z,76.14
2022-09-22T11:39:31.305Z,78.01
2022-09-22T11:42:59.420Z,78.00
2022-09-22T11:46:50.767Z,78.89
2022-09-22T11:50:24.344Z,78.31
2022-09-22T11:53:53.963Z,77.27
2022-09-22T11:57:15.277Z,76.96
2022-09-22T12:00:23.453Z,77.21
2022-09-22T12:03:48.170Z,78.85
2022-09-22T12:07:03.908Z,79.74
2022-09-22T12:10:21.581Z,81.75
2022-09-22T12:13:42.271Z,88.52
2022-09-22T12:17:13.741Z,83.08
2022-09-22T12:21:10.053Z,81.10
2022-09-22T12:24:22.143Z,78.99
2022-09-22T12:27:39.139Z,78.58
2022-09-22T12:31:08.121Z,79.30
2022-09-22T12:34:54.080Z,79.88
2022-09-22T12:38:14.364Z,84.81
2022-09-22T12:41:32.161Z,84.46
2022-09-22T12:44:51.179Z,81.64
2022-09-22T12:48:00.273Z,80.80
2022-09-22T12:51:29.007Z,80.39
2022-09-22T12:54:52.132Z,80.00
2022-09-22T12:58:44.949Z,82.73
2022-09-22T13:02:16.244Z,81.39
2022-09-22T13:05:29.837Z,79.78
2022-09-22T13:08:46.044Z,79.64
2022-09-22T13:12:40.824Z,80.50
2022-09-22T13:16:20.321Z,81.11
2022-09-22T13:19:42.377Z,81.50
2022-09-22T13:23:31.277Z,82.82
2022-09-22T13:27:02.223Z,82.38
2022-09-22T13:30:24.261Z,82.15
2022-09-22T13:33:46.363Z,81.00
2022-09-22T13:37:08.215Z,80.07
2022-09-22T13:40:34.166Z,80.23
2022-09-22T13:44:14.578Z,81.88
2022-09-22T13:47:28.880Z,85.66
2022-09-22T13:50:50.584Z,82.91
2022-09-22T13:54:10.376Z,81.31
2022-09-22T13:57:36.248Z,83.19
2022-09-22T14:01:13.442Z,82.43
2022-09-22T14:04:44.012Z,84.11
2022-09-22T14:08:11.181Z,82.30
2022-09-22T14:11:32.599Z,82.32
2022-09-22T14:14:42.809Z,81.99
2022-09-22T14:17:53.769Z,81.48
2022-09-22T14:21:03.378Z,80.14
2022-09-22T14:24:08.489Z,79.40
2022-09-22T14:27:33.220Z,79.61
2022-09-22T14:30:45.364Z,78.58
2022-09-22T14:33:55.983Z,78.43
2022-09-22T14:37:25.139Z,77.71
2022-09-22T14:40:36.146Z,77.54
2022-09-22T14:43:48.496Z,77.23
2022-09-22T14:47:10.597Z,79.00
2022-09-22T14:50:50.708Z,78.21
2022-09-22T14:54:09.850Z,77.60
2022-09-22T14:57:33.028Z,77.45
2022-09-22T15:01:34.699Z,77.73
2022-09-22T15:04:54.738Z,78.36
2022-09-22T15:08:08.945Z,79.34
2022-09-22T15:11:25.463Z,80.85
2022-09-22T15:18:44.196Z,80.30
2022-09-22T15:22:20.331Z,79.07
2022-09-22T15:26:06.790Z,77.61
2022-09-22T15:29:21.138Z,76.50
2022-09-22T15:33:32.474Z,74.92
2022-09-22T15:41:54.784Z,72.75
2022-09-22T15:44:28.046Z,72.01
2022-09-22T15:48:19.759Z,72.74
2022-09-22T15:51:47.003Z,73.22
2022-09-22T15:55:11.537Z,74.18
2022-09-22T15:58:35.130Z,73.76
2022-09-22T16:01:49.516Z,73.24
2022-09-22T16:05:09.479Z,74.43
2022-09-22T16:08:44.297Z,75.64
2022-09-22T16:12:42.054Z,76.85
2022-09-22T16:15:57.079Z,76.41
2022-09-22T16:19:15.986Z,75.78
2022-09-22T16:22:30.489Z,75.71
2022-09-22T16:26:01.468Z,76.82
2022-09-22T16:29:14.061Z,77.62
2022-09-22T16:32:29.746Z,78.65
2022-09-22T16:36:00.751Z,77.67
2022-09-22T16:39:21.543Z,75.34
2022-09-22T16:42:56.581Z,74.34
2022-09-22T16:46:27.112Z,73.81
2022-09-22T16:49:53.417Z,74.02
2022-09-22T16:53:10.156Z,74.33
2022-09-22T16:56:24.596Z,74.24
2022-09-22T16:59:51.769Z,74.44
2022-09-22T17:03:37.523Z,73.82
2022-09-22T17:06:54.104Z,74.46
2022-09-22T17:11:22.882Z,74.76
2022-09-22T17:14:24.716Z,74.93
2022-09-22T17:17:46.361Z,74.72
2022-09-22T17:21:00.722Z,75.07
2022-09-22T17:24:18.731Z,74.37
2022-09-22T17:27:52.225Z,74.48
2022-09-22T17:31:31.777Z,74.13
2022-09-22T17:35:08.621Z,72.96
2022-09-22T17:39:01.860Z,71.71
2022-09-22T17:42:24.169Z,71.23
2022-09-22T17:45:55.263Z,70.90
2022-09-22T17:49:24.991Z,71.08
2022-09-22T17:52:41.101Z,70.62
2022-09-22T17:56:05.910Z,71.57
2022-09-22T17:59:20.996Z,71.52
2022-09-22T18:02:54.342Z,71.69
2022-09-22T18:06:44.764Z,71.60
2022-09-22T18:10:25.768Z,72.37
2022-09-22T18:13:48.702Z,73.49
2022-09-22T18:17:14.967Z,73.57
2022-09-22T18:20:27.130Z,74.00
2022-09-22T18:23:45.669Z,74.52
2022-09-22T18:26:52.697Z,75.27
2022-09-22T18:30:16.001Z,75.76
2022-09-22T18:33:46.205Z,75.40
2022-09-22T18:37:14.843Z,75.79
2022-09-22T18:40:43.046Z,75.92
2022-09-22T18:43:54.115Z,75.78
2022-09-22T18:47:26.715Z,75.54
2022-09-22T18:50:40.764Z,74.87
2022-09-22T18:54:17.755Z,75.38
2022-09-22T18:57:44.208Z,75.81
2022-09-22T19:01:08.207Z,76.21
2022-09-22T19:04:31.571Z,75.99
2022-09-22T19:07:59.269Z,76.05
2022-09-22T19:11:27.118Z,76.67
2022-09-22T19:15:02.275Z,76.81
2022-09-22T19:18:46.140Z,76.02
2022-09-22T19:21:56.036Z,75.17
2022-09-22T19:25:30.768Z,74.74
2022-09-22T19:29:05.143Z,75.15
2022-09-22T19:32:41.909Z,76.94
2022-09-22T19:36:13.896Z,79.05
2022-09-22T19:39:43.987Z,79.63
2022-09-22T19:43:58.701Z,80.13
2022-09-22T19:46:57.880Z,80.05
2022-09-22T19:53:59.653Z,80.34
2022-09-22T19:57:30.792Z,79.96
2022-09-22T20:00:49.551Z,80.00
2022-09-22T20:04:06.981Z,78.89
2022-09-22T20:11:44.458Z,77.25
2022-09-22T20:18:45.588Z,76.35
2022-09-22T20:22:30.934Z,75.99
2022-09-22T20:25:48.076Z,76.23
2022-09-22T20:33:16.365Z,76.05
2022-09-22T20:42:22.904Z,75.61
2022-09-22T20:53:34.370Z,74.83
2022-09-22T21:02:58.344Z,74.83
2022-09-22T21:21:16.629Z,74.20
2022-09-22T21:25:12.009Z,73.93
2022-09-22T21:28:22.334Z,73.41
2022-09-22T21:32:15.912Z,73.13
2022-09-22T21:40:45.462Z,71.94
2022-09-22T21:44:41.825Z,71.89
2022-09-22T21:53:41.314Z,70.31
2022-09-22T21:56:52.497Z,70.16
2022-09-22T22:00:28.007Z,70.05
2022-09-22T22:03:55.427Z,68.64
2022-09-22T22:07:25.679Z,67.08
2022-09-22T22:10:56.967Z,62.31
2022-09-22T22:14:40.157Z,63.04
2022-09-22T22:18:14.945Z,61.89
2022-09-22T22:22:10.050Z,61.80
2022-09-22T22:26:08.916Z,61.25
2022-09-22T22:29:50.135Z,60.95
2022-09-22T22:33:46.516Z,58.99
2022-09-22T22:37:37.462Z,60.04
2022-09-22T22:40:48.532Z,58.05
2022-09-22T22:45:11.626Z,57.97
2022-09-22T22:48:55.212Z,57.58
2022-09-22T22:52:41.096Z,57.15
2022-09-22T22:56:29.231Z,55.47
2022-09-22T23:00:02.916Z,55.35
2022-09-22T23:03:16.225Z,54.46
2022-09-22T23:06:38.902Z,53.31
2022-09-22T23:09:46.581Z,53.06
2022-09-22T23:13:01.589Z,54.26
2022-09-22T23:16:26.327Z,54.89
2022-09-22T23:19:42.642Z,54.57
2022-09-22T23:23:25.094Z,55.30
2022-09-22T23:26:33.276Z,56.02
2022-09-22T23:29:53.148Z,55.78
2022-09-22T23:32:59.808Z,55.61
2022-09-22T23:36:19.314Z,56.08
2022-09-22T23:39:35.547Z,56.09
2022-09-22T23:42:57.350Z,56.04
2022-09-22T23:46:28.928Z,56.56
2022-09-22T23:50:16.420Z,56.32
2022-09-22T23:54:45.862Z,55.09
2022-09-22T23:57:48.265Z,54.26
